createdAt,value
2019-04-19T00:02:25.895Z,7.50
2019-04-19T00:06:42.694Z,7.30
2019-04-19T00:10:58.034Z,7.20
2019-04-19T00:15:01.467Z,7.00
2019-04-19T00:19:31.497Z,7.00
2019-04-19T00:23:31.134Z,6.90
2019-04-19T00:27:39.590Z,6.90
2019-04-19T00:31:59.202Z,6.80
2019-04-19T00:35:53.851Z,6.90
2019-04-19T00:40:27.835Z,6.80
2019-04-19T00:44:51.715Z,6.80
2019-04-19T00:48:58.511Z,6.80
2019-04-19T00:53:07.899Z,6.80
2019-04-19T00:57:14.715Z,6.80
2019-04-19T01:01:21.567Z,6.70
2019-04-19T01:05:29.180Z,6.70
2019-04-19T01:09:48.601Z,6.70
2019-04-19T01:14:01.350Z,6.60
2019-04-19T01:18:15.495Z,6.60
2019-04-19T01:22:15.192Z,6.50
2019-04-19T01:26:19.983Z,6.50
2019-04-19T01:30:34.902Z,6.40
2019-04-19T01:34:39.870Z,6.30
2019-04-19T01:38:58.099Z,6.20
2019-04-19T01:43:22.364Z,6.20
2019-04-19T01:47:51.526Z,6.10
2019-04-19T01:52:37.055Z,6.10
2019-04-19T01:56:20.434Z,6.10
2019-04-19T02:00:38.083Z,6.10
2019-04-19T02:04:41.297Z,6.10
2019-04-19T02:08:54.155Z,6.00
2019-04-19T02:13:12.087Z,6.00
2019-04-19T02:17:14.594Z,5.90
2019-04-19T02:21:27.691Z,5.90
2019-04-19T02:25:33.905Z,5.80
2019-04-19T02:29:49.823Z,5.80
2019-04-19T02:34:32.052Z,5.70
2019-04-19T02:38:40.099Z,5.70
2019-04-19T02:42:44.551Z,5.60
2019-04-19T02:47:00.228Z,5.60
2019-04-19T02:55:14.555Z,5.50
2019-04-19T02:59:56.977Z,5.50
2019-04-19T03:04:06.755Z,5.40
2019-04-19T03:07:40.618Z,5.30
2019-04-19T03:12:00.877Z,5.20
2019-04-19T03:16:29.552Z,5.20
2019-04-19T03:20:28.726Z,5.10
2019-04-19T03:24:42.228Z,5.00
2019-04-19T03:28:40.509Z,5.00
2019-04-19T03:33:11.362Z,5.00
2019-04-19T03:37:16.425Z,5.00
2019-04-19T03:41:40.466Z,5.00
2019-04-19T03:45:35.349Z,5.00
2019-04-19T03:49:50.626Z,4.90
2019-04-19T03:54:11.655Z,4.90
2019-04-19T03:57:58.195Z,4.90
2019-04-19T04:02:02.954Z,4.90
2019-04-19T04:06:19.617Z,4.90
2019-04-19T04:10:37.684Z,4.90
2019-04-19T04:15:02.714Z,4.80
2019-04-19T04:18:59.778Z,4.70
2019-04-19T04:23:15.476Z,4.70
2019-04-19T04:27:31.585Z,4.70
2019-04-19T04:31:44.619Z,4.70
2019-04-19T04:35:53.193Z,4.60
2019-04-19T04:39:51.403Z,4.60
2019-04-19T04:44:21.385Z,4.60
2019-04-19T04:48:43.481Z,4.60
2019-04-19T04:52:43.918Z,4.60
2019-04-19T04:57:17.178Z,4.50
2019-04-19T05:01:33.260Z,4.60
2019-04-19T05:05:49.665Z,4.80
2019-04-19T05:09:59.215Z,5.20
2019-04-19T05:14:11.309Z,5.60
2019-04-19T05:18:26.260Z,5.90
2019-04-19T05:22:31.662Z,6.30
2019-04-19T05:30:46.903Z,6.60
2019-04-19T05:35:06.982Z,6.50
2019-04-19T05:39:26.370Z,6.50
2019-04-19T05:43:54.057Z,6.50
2019-04-19T05:47:40.629Z,6.50
2019-04-19T05:51:55.188Z,6.60
2019-04-19T05:55:50.306Z,6.70
2019-04-19T06:00:16.097Z,6.80
2019-04-19T06:04:26.342Z,7.00
2019-04-19T06:08:26.493Z,7.10
2019-04-19T06:12:35.520Z,7.40
2019-04-19T06:17:11.307Z,7.60
2019-04-19T06:21:27.690Z,7.90
2019-04-19T06:25:46.115Z,8.20
2019-04-19T06:29:58.879Z,8.40
2019-04-19T06:34:04.723Z,8.70
2019-04-19T06:37:54.296Z,9.00
2019-04-19T06:42:07.738Z,9.30
2019-04-19T06:46:29.101Z,9.60
2019-04-19T06:50:34.053Z,9.90
2019-04-19T06:54:38.835Z,10.20
2019-04-19T06:58:55.821Z,10.60
2019-04-19T07:02:56.247Z,10.90
2019-04-19T07:07:23.550Z,11.30
2019-04-19T07:11:43.110Z,11.60
2019-04-19T07:15:49.989Z,11.90
2019-04-19T07:19:56.226Z,12.30
2019-04-19T07:24:14.956Z,12.70
2019-04-19T07:28:23.986Z,13.10
2019-04-19T07:32:37.226Z,13.40
2019-04-19T07:36:57.684Z,13.80
2019-04-19T07:41:13.681Z,14.20
2019-04-19T07:45:10.769Z,14.60
2019-04-19T07:49:17.385Z,14.90
2019-04-19T07:53:32.043Z,15.20
2019-04-19T07:58:16.823Z,15.60
2019-04-19T08:06:28.032Z,16.20
2019-04-19T08:10:42.269Z,16.50
2019-04-19T08:14:48.014Z,17.00
2019-04-19T08:31:07.871Z,18.00
2019-04-19T08:35:17.324Z,18.20
2019-04-19T08:39:46.140Z,18.40
2019-04-19T08:43:50.921Z,18.60
2019-04-19T08:48:11.978Z,18.80
2019-04-19T08:52:25.147Z,18.80
2019-04-19T08:56:42.176Z,18.90
2019-04-19T09:01:03.515Z,19.20
2019-04-19T09:05:09.334Z,19.40
2019-04-19T09:09:27.997Z,19.70
2019-04-19T09:13:35.410Z,19.80
2019-04-19T09:18:09.262Z,20.00
2019-04-19T09:21:50.502Z,20.20
2019-04-19T09:26:03.084Z,20.30
2019-04-19T09:30:22.286Z,20.40
2019-04-19T09:34:16.829Z,20.60
2019-04-19T09:38:39.733Z,20.70
2019-04-19T09:42:46.395Z,20.80
2019-04-19T09:46:44.835Z,20.90
2019-04-19T09:51:07.488Z,21.00
2019-04-19T09:55:26.813Z,21.20
2019-04-19T09:59:24.054Z,21.70
2019-04-19T10:03:34.707Z,21.90
2019-04-19T10:07:36.790Z,22.10
2019-04-19T10:11:46.474Z,22.30
2019-04-19T10:16:00.629Z,22.50
2019-04-19T10:20:10.932Z,22.20
2019-04-19T10:24:22.604Z,22.30
2019-04-19T10:28:30.655Z,22.30
2019-04-19T10:32:40.311Z,22.50
2019-04-19T10:36:51.310Z,22.60
2019-04-19T10:41:01.775Z,22.50
2019-04-19T10:45:12.217Z,22.80
2019-04-19T10:49:32.321Z,23.00
2019-04-19T10:53:32.466Z,23.30
2019-04-19T10:57:43.105Z,23.40
2019-04-19T11:01:52.216Z,23.30
2019-04-19T11:06:01.138Z,23.10
2019-04-19T11:10:11.691Z,23.30
2019-04-19T11:14:21.845Z,23.60
2019-04-19T11:18:31.777Z,23.80
2019-04-19T11:22:41.784Z,24.00
2019-04-19T11:26:50.898Z,23.80
2019-04-19T11:31:08.910Z,24.10
2019-04-19T11:35:19.234Z,24.20
2019-04-19T11:39:28.333Z,24.50
2019-04-19T11:43:37.773Z,24.50
2019-04-19T11:47:47.369Z,24.50
2019-04-19T11:51:56.478Z,24.70
2019-04-19T11:56:28.628Z,24.90
2019-04-19T12:00:40.378Z,24.80
2019-04-19T12:04:50.296Z,24.70
2019-04-19T12:09:00.456Z,24.80
2019-04-19T12:13:09.515Z,24.80
2019-04-19T12:17:18.521Z,24.70
2019-04-19T12:21:27.581Z,24.70
2019-04-19T12:25:37.558Z,25.20
2019-04-19T12:29:49.549Z,25.40
2019-04-19T12:33:57.620Z,25.40
2019-04-19T12:38:08.007Z,25.50
2019-04-19T12:42:31.698Z,25.20
2019-04-19T12:46:41.359Z,25.30
2019-04-19T12:50:51.604Z,25.40
2019-04-19T12:55:01.937Z,25.20
2019-04-19T12:59:11.611Z,25.20
2019-04-19T13:03:39.552Z,25.10
2019-04-19T13:07:49.313Z,25.20
2019-04-19T13:11:58.948Z,25.40
2019-04-19T13:16:08.343Z,25.60
2019-04-19T13:20:24.207Z,25.60
2019-04-19T13:24:28.725Z,25.60
2019-04-19T13:28:39.483Z,25.70
2019-04-19T13:32:49.445Z,25.80
2019-04-19T13:37:23.440Z,25.80
2019-04-19T13:41:43.054Z,25.90
2019-04-19T13:45:52.691Z,26.20
2019-04-19T13:50:14.548Z,26.30
2019-04-19T13:54:12.554Z,26.30
2019-04-19T13:58:22.050Z,26.30
2019-04-19T14:02:31.438Z,26.30
2019-04-19T14:06:40.667Z,26.50
2019-04-19T14:10:50.898Z,26.80
2019-04-19T14:15:00.497Z,26.60
2019-04-19T14:19:11.395Z,26.30
2019-04-19T14:23:21.665Z,26.50
2019-04-19T14:27:31.162Z,26.40
2019-04-19T14:31:40.143Z,26.50
2019-04-19T14:35:50.167Z,26.20
2019-04-19T14:40:00.501Z,26.10
2019-04-19T14:44:09.576Z,26.10
2019-04-19T14:48:25.823Z,26.00
2019-04-19T14:52:30.125Z,26.10
2019-04-19T14:56:39.268Z,26.10
2019-04-19T15:01:08.768Z,26.00
2019-04-19T15:05:31.932Z,25.60
2019-04-19T15:09:41.667Z,25.90
2019-04-19T15:13:52.623Z,25.70
2019-04-19T15:18:02.157Z,25.70
2019-04-19T15:22:12.285Z,25.70
2019-04-19T15:26:22.600Z,25.80
2019-04-19T15:30:32.883Z,25.80
2019-04-19T15:34:43.469Z,25.50
2019-04-19T15:38:53.383Z,25.40
2019-04-19T15:43:03.182Z,25.40
2019-04-19T15:47:12.661Z,25.40
2019-04-19T15:51:27.117Z,25.30
2019-04-19T15:55:32.324Z,25.30
2019-04-19T15:59:41.338Z,25.20
2019-04-19T16:03:54.293Z,25.10
2019-04-19T16:08:12.459Z,25.00
2019-04-19T16:12:31.667Z,24.80
2019-04-19T16:16:40.609Z,24.70
2019-04-19T16:20:50.853Z,24.70
2019-04-19T16:25:01.095Z,24.50
2019-04-19T16:29:17.073Z,24.60
2019-04-19T16:33:22.019Z,24.70
2019-04-19T16:37:31.164Z,24.60
2019-04-19T16:41:40.695Z,24.50
2019-04-19T16:46:01.468Z,24.30
2019-04-19T16:50:00.577Z,24.20
2019-04-19T16:54:10.239Z,23.90
2019-04-19T16:58:20.783Z,23.50
2019-04-19T17:02:31.076Z,23.10
2019-04-19T17:06:40.549Z,22.90
2019-04-19T17:10:49.519Z,23.40
2019-04-19T17:15:08.595Z,24.70
2019-04-19T17:19:26.669Z,25.80
2019-04-19T17:23:37.027Z,26.80
2019-04-19T17:27:47.130Z,27.70
2019-04-19T17:31:56.723Z,27.80
2019-04-19T17:36:06.122Z,28.10
2019-04-19T17:40:16.240Z,28.60
2019-04-19T17:44:25.858Z,28.90
2019-04-19T17:48:34.742Z,28.70
2019-04-19T17:52:44.395Z,28.30
2019-04-19T17:56:53.385Z,27.20
2019-04-19T18:01:02.632Z,25.60
2019-04-19T18:05:11.894Z,24.20
2019-04-19T18:09:22.838Z,23.10
2019-04-19T18:13:31.443Z,22.20
2019-04-19T18:17:40.343Z,21.40
2019-04-19T18:21:50.082Z,20.80
2019-04-19T18:25:59.212Z,20.30
2019-04-19T18:30:11.759Z,19.80
2019-04-19T18:34:39.910Z,19.20
2019-04-19T18:38:50.423Z,18.80
2019-04-19T18:43:16.244Z,18.30
2019-04-19T18:47:09.105Z,17.90
2019-04-19T18:51:25.849Z,17.50
2019-04-19T18:55:36.255Z,17.10
2019-04-19T18:59:40.536Z,16.80
2019-04-19T19:03:50.105Z,16.50
2019-04-19T19:08:03.547Z,16.10
2019-04-19T19:12:13.319Z,15.80
2019-04-19T19:16:25.337Z,15.50
2019-04-19T19:20:36.738Z,15.20
2019-04-19T19:25:03.125Z,15.00
2019-04-19T19:28:56.069Z,14.80
2019-04-19T19:33:14.360Z,14.60
2019-04-19T19:37:22.468Z,14.40
2019-04-19T19:42:18.631Z,14.30
2019-04-19T19:45:51.523Z,14.00
2019-04-19T19:50:17.900Z,13.90
2019-04-19T19:58:22.179Z,13.70
2019-04-19T20:02:36.918Z,13.60
2019-04-19T20:06:33.300Z,13.40
2019-04-19T20:10:45.889Z,13.10
2019-04-19T20:14:56.147Z,12.90
2019-04-19T20:19:06.734Z,12.80
2019-04-19T20:23:21.578Z,12.70
2019-04-19T20:27:36.585Z,12.60
2019-04-19T20:31:40.882Z,12.30
2019-04-19T20:35:55.069Z,12.20
2019-04-19T20:40:06.183Z,12.10
2019-04-19T20:44:29.056Z,12.00
2019-04-19T20:48:25.919Z,11.90
2019-04-19T20:52:45.373Z,11.80
2019-04-19T20:57:27.535Z,11.70
2019-04-19T21:01:14.870Z,11.60
2019-04-19T21:05:27.229Z,11.40
2019-04-19T21:09:37.312Z,11.30
2019-04-19T21:13:50.600Z,11.10
2019-04-19T21:17:56.046Z,11.00
2019-04-19T21:22:06.438Z,10.90
2019-04-19T21:26:21.510Z,10.90
2019-04-19T21:30:27.055Z,10.80
2019-04-19T21:34:38.170Z,10.70
2019-04-19T21:38:53.392Z,10.60
2019-04-19T21:42:59.682Z,10.50
2019-04-19T21:47:10.908Z,10.40
2019-04-19T21:51:25.627Z,10.30
2019-04-19T21:55:33.928Z,10.20
2019-04-19T21:59:40.908Z,10.10
2019-04-19T22:03:55.224Z,10.00
2019-04-19T22:08:00.303Z,9.80
2019-04-19T22:12:10.258Z,9.70
2019-04-19T22:16:21.594Z,9.60
2019-04-19T22:20:30.206Z,9.50
2019-04-19T22:24:39.871Z,9.50
2019-04-19T22:28:47.945Z,9.40
2019-04-19T22:33:00.384Z,9.30
2019-04-19T22:37:08.960Z,9.20
2019-04-19T22:41:21.062Z,9.00
2019-04-19T22:45:30.637Z,8.90
2019-04-19T22:49:43.694Z,8.80
2019-04-19T22:53:50.571Z,8.70
2019-04-19T22:58:01.346Z,8.70
2019-04-19T23:02:16.562Z,8.60
2019-04-19T23:06:28.097Z,8.60
2019-04-19T23:10:45.340Z,8.50
2019-04-19T23:14:50.581Z,8.30
2019-04-19T23:19:03.658Z,8.20
2019-04-19T23:23:18.578Z,8.10
2019-04-19T23:27:31.307Z,8.10
2019-04-19T23:31:28.433Z,7.90
2019-04-19T23:35:39.812Z,7.60
2019-04-19T23:39:52.602Z,7.60
2019-04-19T23:43:55.956Z,7.50
2019-04-19T23:48:04.611Z,7.50
2019-04-19T23:52:12.929Z,7.40
2019-04-19T23:56:30.614Z,7.40
